sensor_id;sensor_type;location;lat;lon;timestamp;P1;durP1;ratioP1;P2;durP2;ratioP2
12312;SDS011;6220;53.580;9.758;2022-09-24T00:00:55;7.53;;;5.10;;
12312;SDS011;6220;53.580;9.758;2022-09-24T00:03:21;6.50;;;4.60;;
12312;SDS011;6220;53.580;9.758;2022-09-24T00:05:47;6.93;;;4.83;;
12312;SDS011;6220;53.580;9.758;2022-09-24T00:08:14;6.93;;;5.00;;
12312;SDS011;6220;53.580;9.758;2022-09-24T00:10:40;6.17;;;4.90;;
12312;SDS011;6220;53.580;9.758;2022-09-24T00:13:08;5.93;;;5.33;;
12312;SDS011;6220;53.580;9.758;2022-09-24T00:15:36;6.40;;;5.07;;
12312;SDS011;6220;53.580;9.758;2022-09-24T00:18:03;7.27;;;4.80;;
12312;SDS011;6220;53.580;9.758;2022-09-24T00:20:29;5.37;;;4.60;;
12312;SDS011;6220;53.580;9.758;2022-09-24T00:22:55;5.23;;;4.47;;
12312;SDS011;6220;53.580;9.758;2022-09-24T00:25:20;5.73;;;5.10;;
12312;SDS011;6220;53.580;9.758;2022-09-24T00:28:04;9.93;;;5.07;;
12312;SDS011;6220;53.580;9.758;2022-09-24T00:30:30;6.37;;;5.00;;
12312;SDS011;6220;53.580;9.758;2022-09-24T00:32:55;5.77;;;5.00;;
12312;SDS011;6220;53.580;9.758;2022-09-24T00:35:20;5.53;;;4.50;;
12312;SDS011;6220;53.580;9.758;2022-09-24T00:37:47;6.23;;;4.87;;
12312;SDS011;6220;53.580;9.758;2022-09-24T00:40:13;5.67;;;4.90;;
12312;SDS011;6220;53.580;9.758;2022-09-24T00:42:39;7.70;;;5.17;;
12312;SDS011;6220;53.580;9.758;2022-09-24T00:45:05;5.70;;;4.90;;
12312;SDS011;6220;53.580;9.758;2022-09-24T00:47:36;9.00;;;5.03;;
12312;SDS011;6220;53.580;9.758;2022-09-24T00:50:05;7.50;;;4.70;;
12312;SDS011;6220;53.580;9.758;2022-09-24T00:52:44;6.40;;;4.33;;
12312;SDS011;6220;53.580;9.758;2022-09-24T00:55:12;5.23;;;4.73;;
12312;SDS011;6220;53.580;9.758;2022-09-24T00:57:38;7.07;;;4.33;;
12312;SDS011;6220;53.580;9.758;2022-09-24T01:00:04;6.47;;;4.40;;
12312;SDS011;6220;53.580;9.758;2022-09-24T01:02:31;5.80;;;4.20;;
12312;SDS011;6220;53.580;9.758;2022-09-24T01:04:59;5.47;;;4.97;;
12312;SDS011;6220;53.580;9.758;2022-09-24T01:07:24;5.73;;;4.87;;
12312;SDS011;6220;53.580;9.758;2022-09-24T01:09:50;8.70;;;5.57;;
12312;SDS011;6220;53.580;9.758;2022-09-24T01:12:22;6.90;;;5.60;;
12312;SDS011;6220;53.580;9.758;2022-09-24T01:17:36;7.47;;;5.77;;
12312;SDS011;6220;53.580;9.758;2022-09-24T01:25:48;7.20;;;5.80;;
12312;SDS011;6220;53.580;9.758;2022-09-24T01:30:57;8.20;;;6.50;;
12312;SDS011;6220;53.580;9.758;2022-09-24T01:33:35;7.07;;;6.37;;
12312;SDS011;6220;53.580;9.758;2022-09-24T01:36:02;6.53;;;5.93;;
12312;SDS011;6220;53.580;9.758;2022-09-24T01:38:32;6.97;;;6.30;;
12312;SDS011;6220;53.580;9.758;2022-09-24T01:41:02;10.53;;;7.60;;
12312;SDS011;6220;53.580;9.758;2022-09-24T01:43:28;6.93;;;6.23;;
12312;SDS011;6220;53.580;9.758;2022-09-24T01:45:54;9.17;;;7.30;;
12312;SDS011;6220;53.580;9.758;2022-09-24T01:48:22;9.33;;;8.33;;
12312;SDS011;6220;53.580;9.758;2022-09-24T01:50:56;10.23;;;9.00;;
12312;SDS011;6220;53.580;9.758;2022-09-24T01:53:34;9.60;;;8.63;;
12312;SDS011;6220;53.580;9.758;2022-09-24T01:56:06;10.33;;;8.80;;
12312;SDS011;6220;53.580;9.758;2022-09-24T01:58:39;8.47;;;7.43;;
12312;SDS011;6220;53.580;9.758;2022-09-24T02:01:11;9.17;;;7.60;;
12312;SDS011;6220;53.580;9.758;2022-09-24T02:03:44;9.63;;;8.63;;
12312;SDS011;6220;53.580;9.758;2022-09-24T02:06:13;11.97;;;8.77;;
12312;SDS011;6220;53.580;9.758;2022-09-24T02:08:45;9.33;;;8.37;;
12312;SDS011;6220;53.580;9.758;2022-09-24T02:13:48;10.40;;;8.60;;
12312;SDS011;6220;53.580;9.758;2022-09-24T02:16:18;11.77;;;9.30;;
12312;SDS011;6220;53.580;9.758;2022-09-24T02:18:47;10.20;;;8.30;;
12312;SDS011;6220;53.580;9.758;2022-09-24T02:21:15;12.87;;;9.73;;
12312;SDS011;6220;53.580;9.758;2022-09-24T02:23:45;11.27;;;10.03;;
12312;SDS011;6220;53.580;9.758;2022-09-24T02:26:13;13.23;;;11.90;;
12312;SDS011;6220;53.580;9.758;2022-09-24T02:28:38;12.27;;;10.97;;
12312;SDS011;6220;53.580;9.758;2022-09-24T02:31:10;10.57;;;9.57;;
12312;SDS011;6220;53.580;9.758;2022-09-24T02:33:41;10.53;;;9.43;;
12312;SDS011;6220;53.580;9.758;2022-09-24T02:36:27;12.70;;;10.57;;
12312;SDS011;6220;53.580;9.758;2022-09-24T02:38:53;12.43;;;10.90;;
12312;SDS011;6220;53.580;9.758;2022-09-24T02:41:18;12.70;;;11.50;;
12312;SDS011;6220;53.580;9.758;2022-09-24T02:43:47;13.87;;;11.47;;
12312;SDS011;6220;53.580;9.758;2022-09-24T02:46:13;14.13;;;12.63;;
12312;SDS011;6220;53.580;9.758;2022-09-24T02:48:39;16.60;;;12.40;;
12312;SDS011;6220;53.580;9.758;2022-09-24T02:51:04;14.60;;;13.10;;
12312;SDS011;6220;53.580;9.758;2022-09-24T02:53:30;13.10;;;11.63;;
12312;SDS011;6220;53.580;9.758;2022-09-24T02:55:56;13.67;;;12.27;;
12312;SDS011;6220;53.580;9.758;2022-09-24T02:58:22;13.37;;;11.00;;
12312;SDS011;6220;53.580;9.758;2022-09-24T03:00:48;13.20;;;11.87;;
12312;SDS011;6220;53.580;9.758;2022-09-24T03:03:14;12.73;;;11.13;;
12312;SDS011;6220;53.580;9.758;2022-09-24T03:05:40;14.67;;;12.53;;
12312;SDS011;6220;53.580;9.758;2022-09-24T03:08:05;14.20;;;12.20;;
12312;SDS011;6220;53.580;9.758;2022-09-24T03:10:31;13.67;;;12.37;;
12312;SDS011;6220;53.580;9.758;2022-09-24T03:12:57;12.67;;;11.37;;
12312;SDS011;6220;53.580;9.758;2022-09-24T03:15:22;14.40;;;12.30;;
12312;SDS011;6220;53.580;9.758;2022-09-24T03:17:47;15.13;;;12.50;;
12312;SDS011;6220;53.580;9.758;2022-09-24T03:20:12;14.40;;;12.60;;
12312;SDS011;6220;53.580;9.758;2022-09-24T03:22:38;14.40;;;12.30;;
12312;SDS011;6220;53.580;9.758;2022-09-24T03:25:03;13.13;;;11.83;;
12312;SDS011;6220;53.580;9.758;2022-09-24T03:27:29;14.87;;;13.07;;
12312;SDS011;6220;53.580;9.758;2022-09-24T03:29:54;14.33;;;12.83;;
12312;SDS011;6220;53.580;9.758;2022-09-24T03:32:38;14.50;;;13.00;;
12312;SDS011;6220;53.580;9.758;2022-09-24T03:35:04;14.47;;;12.97;;
12312;SDS011;6220;53.580;9.758;2022-09-24T03:37:30;15.37;;;13.53;;
12312;SDS011;6220;53.580;9.758;2022-09-24T03:39:57;17.53;;;14.27;;
12312;SDS011;6220;53.580;9.758;2022-09-24T03:42:22;14.83;;;13.23;;
12312;SDS011;6220;53.580;9.758;2022-09-24T03:44:48;20.20;;;14.63;;
12312;SDS011;6220;53.580;9.758;2022-09-24T03:47:13;14.90;;;13.30;;
12312;SDS011;6220;53.580;9.758;2022-09-24T03:49:38;16.83;;;14.87;;
12312;SDS011;6220;53.580;9.758;2022-09-24T03:52:04;16.50;;;14.50;;
12312;SDS011;6220;53.580;9.758;2022-09-24T03:54:29;16.03;;;14.37;;
12312;SDS011;6220;53.580;9.758;2022-09-24T03:56:55;14.93;;;13.40;;
12312;SDS011;6220;53.580;9.758;2022-09-24T03:59:20;16.80;;;15.10;;
12312;SDS011;6220;53.580;9.758;2022-09-24T04:01:45;17.90;;;15.63;;
12312;SDS011;6220;53.580;9.758;2022-09-24T04:04:11;19.90;;;16.13;;
12312;SDS011;6220;53.580;9.758;2022-09-24T04:06:39;17.50;;;15.30;;
12312;SDS011;6220;53.580;9.758;2022-09-24T04:09:04;17.90;;;16.20;;
12312;SDS011;6220;53.580;9.758;2022-09-24T04:11:30;19.03;;;17.00;;
12312;SDS011;6220;53.580;9.758;2022-09-24T04:13:58;18.20;;;16.37;;
12312;SDS011;6220;53.580;9.758;2022-09-24T04:16:23;18.70;;;16.70;;
12312;SDS011;6220;53.580;9.758;2022-09-24T04:18:48;18.73;;;16.77;;
12312;SDS011;6220;53.580;9.758;2022-09-24T04:21:14;19.50;;;17.07;;
12312;SDS011;6220;53.580;9.758;2022-09-24T04:23:40;19.33;;;17.33;;
12312;SDS011;6220;53.580;9.758;2022-09-24T04:26:05;18.83;;;16.87;;
12312;SDS011;6220;53.580;9.758;2022-09-24T04:28:31;21.40;;;18.27;;
12312;SDS011;6220;53.580;9.758;2022-09-24T04:30:56;20.50;;;18.40;;
12312;SDS011;6220;53.580;9.758;2022-09-24T04:33:22;19.63;;;17.57;;
12312;SDS011;6220;53.580;9.758;2022-09-24T04:35:47;21.30;;;18.70;;
12312;SDS011;6220;53.580;9.758;2022-09-24T04:38:12;20.37;;;17.97;;
12312;SDS011;6220;53.580;9.758;2022-09-24T04:40:38;19.03;;;17.03;;
12312;SDS011;6220;53.580;9.758;2022-09-24T04:43:04;22.13;;;19.83;;
12312;SDS011;6220;53.580;9.758;2022-09-24T04:45:30;23.87;;;21.27;;
12312;SDS011;6220;53.580;9.758;2022-09-24T04:47:56;21.80;;;18.97;;
12312;SDS011;6220;53.580;9.758;2022-09-24T04:50:22;21.97;;;19.20;;
12312;SDS011;6220;53.580;9.758;2022-09-24T04:52:53;21.60;;;19.50;;
12312;SDS011;6220;53.580;9.758;2022-09-24T04:55:19;20.73;;;18.53;;
12312;SDS011;6220;53.580;9.758;2022-09-24T04:57:45;21.13;;;18.93;;
12312;SDS011;6220;53.580;9.758;2022-09-24T05:00:11;21.90;;;19.60;;
12312;SDS011;6220;53.580;9.758;2022-09-24T05:02:39;23.77;;;20.17;;
12312;SDS011;6220;53.580;9.758;2022-09-24T05:05:05;23.37;;;19.43;;
12312;SDS011;6220;53.580;9.758;2022-09-24T05:07:31;20.13;;;17.73;;
12312;SDS011;6220;53.580;9.758;2022-09-24T05:09:56;20.57;;;18.37;;
12312;SDS011;6220;53.580;9.758;2022-09-24T05:12:21;19.30;;;17.20;;
12312;SDS011;6220;53.580;9.758;2022-09-24T05:14:47;20.60;;;18.47;;
12312;SDS011;6220;53.580;9.758;2022-09-24T05:17:12;18.77;;;16.83;;
12312;SDS011;6220;53.580;9.758;2022-09-24T05:19:38;20.43;;;18.33;;
12312;SDS011;6220;53.580;9.758;2022-09-24T05:22:03;18.73;;;16.33;;
12312;SDS011;6220;53.580;9.758;2022-09-24T05:24:29;19.43;;;17.33;;
12312;SDS011;6220;53.580;9.758;2022-09-24T05:26:54;19.17;;;17.17;;
12312;SDS011;6220;53.580;9.758;2022-09-24T05:29:45;17.87;;;15.97;;
12312;SDS011;6220;53.580;9.758;2022-09-24T05:32:12;17.70;;;15.90;;
12312;SDS011;6220;53.580;9.758;2022-09-24T05:34:39;18.60;;;16.63;;
12312;SDS011;6220;53.580;9.758;2022-09-24T05:37:05;19.50;;;16.87;;
12312;SDS011;6220;53.580;9.758;2022-09-24T05:39:30;18.47;;;15.83;;
12312;SDS011;6220;53.580;9.758;2022-09-24T05:41:56;19.03;;;15.53;;
12312;SDS011;6220;53.580;9.758;2022-09-24T05:44:21;16.30;;;14.60;;
12312;SDS011;6220;53.580;9.758;2022-09-24T05:46:50;16.73;;;14.90;;
12312;SDS011;6220;53.580;9.758;2022-09-24T05:49:16;17.63;;;15.20;;
12312;SDS011;6220;53.580;9.758;2022-09-24T05:51:41;16.10;;;14.40;;
12312;SDS011;6220;53.580;9.758;2022-09-24T05:54:07;16.23;;;14.07;;
12312;SDS011;6220;53.580;9.758;2022-09-24T05:56:32;16.47;;;14.20;;
12312;SDS011;6220;53.580;9.758;2022-09-24T05:58:58;15.37;;;13.60;;
12312;SDS011;6220;53.580;9.758;2022-09-24T06:01:25;15.03;;;12.13;;
12312;SDS011;6220;53.580;9.758;2022-09-24T06:03:53;14.40;;;12.90;;
12312;SDS011;6220;53.580;9.758;2022-09-24T06:06:20;13.70;;;12.13;;
12312;SDS011;6220;53.580;9.758;2022-09-24T06:08:45;13.83;;;12.37;;
12312;SDS011;6220;53.580;9.758;2022-09-24T06:11:10;13.87;;;12.17;;
12312;SDS011;6220;53.580;9.758;2022-09-24T06:13:37;13.60;;;12.20;;
12312;SDS011;6220;53.580;9.758;2022-09-24T06:16:04;14.63;;;11.63;;
12312;SDS011;6220;53.580;9.758;2022-09-24T06:18:35;13.53;;;12.03;;
12312;SDS011;6220;53.580;9.758;2022-09-24T06:21:01;13.63;;;12.23;;
12312;SDS011;6220;53.580;9.758;2022-09-24T06:23:28;13.97;;;12.13;;
12312;SDS011;6220;53.580;9.758;2022-09-24T06:25:54;14.47;;;11.77;;
12312;SDS011;6220;53.580;9.758;2022-09-24T06:28:20;13.10;;;11.73;;
12312;SDS011;6220;53.580;9.758;2022-09-24T06:30:45;12.77;;;11.30;;
12312;SDS011;6220;53.580;9.758;2022-09-24T06:33:11;15.17;;;12.07;;
12312;SDS011;6220;53.580;9.758;2022-09-24T06:35:38;12.97;;;11.27;;
12312;SDS011;6220;53.580;9.758;2022-09-24T06:38:05;11.57;;;10.37;;
12312;SDS011;6220;53.580;9.758;2022-09-24T06:40:31;11.13;;;10.00;;
12312;SDS011;6220;53.580;9.758;2022-09-24T06:42:57;15.33;;;11.00;;
12312;SDS011;6220;53.580;9.758;2022-09-24T06:45:23;12.47;;;10.07;;
12312;SDS011;6220;53.580;9.758;2022-09-24T06:50:21;12.70;;;11.10;;
12312;SDS011;6220;53.580;9.758;2022-09-24T06:52:48;11.83;;;10.63;;
12312;SDS011;6220;53.580;9.758;2022-09-24T06:55:13;13.07;;;11.77;;
12312;SDS011;6220;53.580;9.758;2022-09-24T06:57:39;15.63;;;12.07;;
12312;SDS011;6220;53.580;9.758;2022-09-24T07:00:05;13.63;;;11.67;;
12312;SDS011;6220;53.580;9.758;2022-09-24T07:02:30;13.37;;;11.93;;
12312;SDS011;6220;53.580;9.758;2022-09-24T07:04:56;14.00;;;12.13;;
12312;SDS011;6220;53.580;9.758;2022-09-24T07:07:21;13.90;;;12.07;;
12312;SDS011;6220;53.580;9.758;2022-09-24T07:10:00;12.70;;;11.40;;
12312;SDS011;6220;53.580;9.758;2022-09-24T07:12:30;15.77;;;13.17;;
12312;SDS011;6220;53.580;9.758;2022-09-24T07:14:56;16.27;;;13.67;;
12312;SDS011;6220;53.580;9.758;2022-09-24T07:17:23;17.27;;;14.10;;
12312;SDS011;6220;53.580;9.758;2022-09-24T07:19:48;20.57;;;15.00;;
12312;SDS011;6220;53.580;9.758;2022-09-24T07:22:14;16.30;;;14.47;;
12312;SDS011;6220;53.580;9.758;2022-09-24T07:24:39;16.17;;;14.40;;
12312;SDS011;6220;53.580;9.758;2022-09-24T07:27:05;16.30;;;13.70;;
12312;SDS011;6220;53.580;9.758;2022-09-24T07:29:31;15.63;;;14.07;;
12312;SDS011;6220;53.580;9.758;2022-09-24T07:31:57;18.83;;;14.93;;
12312;SDS011;6220;53.580;9.758;2022-09-24T07:34:22;17.00;;;14.80;;
12312;SDS011;6220;53.580;9.758;2022-09-24T07:36:48;17.67;;;14.73;;
12312;SDS011;6220;53.580;9.758;2022-09-24T07:39:13;16.33;;;14.57;;
12312;SDS011;6220;53.580;9.758;2022-09-24T07:41:38;15.33;;;13.70;;
12312;SDS011;6220;53.580;9.758;2022-09-24T07:44:04;16.77;;;14.40;;
12312;SDS011;6220;53.580;9.758;2022-09-24T07:46:31;17.20;;;15.37;;
12312;SDS011;6220;53.580;9.758;2022-09-24T07:48:57;17.87;;;14.97;;
12312;SDS011;6220;53.580;9.758;2022-09-24T07:51:22;16.90;;;14.90;;
12312;SDS011;6220;53.580;9.758;2022-09-24T07:53:49;17.47;;;15.00;;
12312;SDS011;6220;53.580;9.758;2022-09-24T07:56:15;17.17;;;15.37;;
12312;SDS011;6220;53.580;9.758;2022-09-24T07:58:40;22.60;;;17.57;;
12312;SDS011;6220;53.580;9.758;2022-09-24T08:01:05;21.23;;;17.40;;
12312;SDS011;6220;53.580;9.758;2022-09-24T08:03:30;17.77;;;15.67;;
12312;SDS011;6220;53.580;9.758;2022-09-24T08:05:56;17.97;;;15.80;;
12312;SDS011;6220;53.580;9.758;2022-09-24T08:08:23;18.67;;;16.43;;
12312;SDS011;6220;53.580;9.758;2022-09-24T08:10:49;19.70;;;15.70;;
12312;SDS011;6220;53.580;9.758;2022-09-24T08:13:14;17.73;;;15.83;;
12312;SDS011;6220;53.580;9.758;2022-09-24T08:15:40;18.53;;;15.30;;
12312;SDS011;6220;53.580;9.758;2022-09-24T08:18:05;19.97;;;17.20;;
12312;SDS011;6220;53.580;9.758;2022-09-24T08:20:31;18.87;;;16.50;;
12312;SDS011;6220;53.580;9.758;2022-09-24T08:23:03;17.73;;;15.87;;
12312;SDS011;6220;53.580;9.758;2022-09-24T08:25:30;20.30;;;16.27;;
12312;SDS011;6220;53.580;9.758;2022-09-24T08:28:02;17.97;;;15.77;;
12312;SDS011;6220;53.580;9.758;2022-09-24T08:30:31;19.10;;;16.10;;
12312;SDS011;6220;53.580;9.758;2022-09-24T08:32:58;18.70;;;16.70;;
12312;SDS011;6220;53.580;9.758;2022-09-24T08:35:23;20.60;;;17.03;;
12312;SDS011;6220;53.580;9.758;2022-09-24T08:37:49;21.57;;;16.63;;
12312;SDS011;6220;53.580;9.758;2022-09-24T08:40:35;20.60;;;17.33;;
12312;SDS011;6220;53.580;9.758;2022-09-24T08:43:08;20.77;;;16.80;;
12312;SDS011;6220;53.580;9.758;2022-09-24T08:45:42;19.37;;;17.27;;
12312;SDS011;6220;53.580;9.758;2022-09-24T08:48:29;19.00;;;16.30;;
12312;SDS011;6220;53.580;9.758;2022-09-24T08:50:59;20.37;;;17.53;;
12312;SDS011;6220;53.580;9.758;2022-09-24T08:53:28;20.97;;;17.27;;
12312;SDS011;6220;53.580;9.758;2022-09-24T08:56:05;19.77;;;17.77;;
12312;SDS011;6220;53.580;9.758;2022-09-24T08:58:49;19.90;;;17.77;;
12312;SDS011;6220;53.580;9.758;2022-09-24T09:01:19;20.03;;;17.93;;
12312;SDS011;6220;53.580;9.758;2022-09-24T09:06:28;19.53;;;17.47;;
12312;SDS011;6220;53.580;9.758;2022-09-24T09:09:02;21.03;;;17.93;;
12312;SDS011;6220;53.580;9.758;2022-09-24T09:11:33;22.10;;;18.03;;
12312;SDS011;6220;53.580;9.758;2022-09-24T09:14:02;21.70;;;18.97;;
12312;SDS011;6220;53.580;9.758;2022-09-24T09:19:32;22.90;;;19.00;;
12312;SDS011;6220;53.580;9.758;2022-09-24T09:22:14;20.60;;;18.40;;
12312;SDS011;6220;53.580;9.758;2022-09-24T09:24:44;20.13;;;17.87;;
12312;SDS011;6220;53.580;9.758;2022-09-24T09:27:13;20.10;;;17.93;;
12312;SDS011;6220;53.580;9.758;2022-09-24T09:29:39;24.93;;;19.90;;
12312;SDS011;6220;53.580;9.758;2022-09-24T09:32:09;25.77;;;20.23;;
12312;SDS011;6220;53.580;9.758;2022-09-24T09:38:02;20.93;;;18.77;;
12312;SDS011;6220;53.580;9.758;2022-09-24T09:40:51;22.67;;;18.97;;
12312;SDS011;6220;53.580;9.758;2022-09-24T09:43:24;23.53;;;19.37;;
12312;SDS011;6220;53.580;9.758;2022-09-24T09:45:55;22.23;;;18.80;;
12312;SDS011;6220;53.580;9.758;2022-09-24T09:48:27;21.43;;;19.00;;
12312;SDS011;6220;53.580;9.758;2022-09-24T09:50:59;24.53;;;20.67;;
12312;SDS011;6220;53.580;9.758;2022-09-24T09:53:30;25.10;;;20.60;;
12312;SDS011;6220;53.580;9.758;2022-09-24T09:56:02;24.73;;;20.27;;
12312;SDS011;6220;53.580;9.758;2022-09-24T09:58:31;21.63;;;18.77;;
12312;SDS011;6220;53.580;9.758;2022-09-24T10:01:10;22.83;;;19.37;;
12312;SDS011;6220;53.580;9.758;2022-09-24T10:06:10;23.43;;;20.90;;
12312;SDS011;6220;53.580;9.758;2022-09-24T10:08:36;23.60;;;19.67;;
12312;SDS011;6220;53.580;9.758;2022-09-24T10:11:02;22.27;;;19.73;;
12312;SDS011;6220;53.580;9.758;2022-09-24T10:13:28;23.03;;;20.57;;
12312;SDS011;6220;53.580;9.758;2022-09-24T10:15:56;23.40;;;20.40;;
12312;SDS011;6220;53.580;9.758;2022-09-24T10:18:32;24.73;;;20.20;;
12312;SDS011;6220;53.580;9.758;2022-09-24T10:21:00;24.60;;;20.90;;
12312;SDS011;6220;53.580;9.758;2022-09-24T10:23:36;23.17;;;20.67;;
12312;SDS011;6220;53.580;9.758;2022-09-24T10:26:04;23.90;;;21.33;;
12312;SDS011;6220;53.580;9.758;2022-09-24T10:28:30;24.37;;;20.17;;
12312;SDS011;6220;53.580;9.758;2022-09-24T10:31:18;21.10;;;18.87;;
12312;SDS011;6220;53.580;9.758;2022-09-24T10:33:46;25.20;;;19.80;;
12312;SDS011;6220;53.580;9.758;2022-09-24T10:36:14;23.37;;;20.43;;
12312;SDS011;6220;53.580;9.758;2022-09-24T10:38:41;22.83;;;20.20;;
12312;SDS011;6220;53.580;9.758;2022-09-24T10:43:50;26.63;;;23.43;;
12312;SDS011;6220;53.580;9.758;2022-09-24T10:46:19;25.97;;;22.60;;
12312;SDS011;6220;53.580;9.758;2022-09-24T10:49:01;27.30;;;23.50;;
12312;SDS011;6220;53.580;9.758;2022-09-24T10:51:38;28.20;;;23.63;;
12312;SDS011;6220;53.580;9.758;2022-09-24T10:57:11;30.80;;;25.63;;
12312;SDS011;6220;53.580;9.758;2022-09-24T11:05:23;31.83;;;26.37;;
12312;SDS011;6220;53.580;9.758;2022-09-24T11:08:11;38.07;;;30.10;;
12312;SDS011;6220;53.580;9.758;2022-09-24T11:24:03;33.37;;;25.00;;
12312;SDS011;6220;53.580;9.758;2022-09-24T11:27:30;33.60;;;27.10;;
12312;SDS011;6220;53.580;9.758;2022-09-24T11:38:14;35.13;;;27.33;;
12312;SDS011;6220;53.580;9.758;2022-09-24T11:40:57;27.03;;;24.13;;
12312;SDS011;6220;53.580;9.758;2022-09-24T11:54:39;29.43;;;24.90;;
12312;SDS011;6220;53.580;9.758;2022-09-24T11:57:14;30.73;;;25.13;;
12312;SDS011;6220;53.580;9.758;2022-09-24T11:59:46;25.83;;;22.97;;
12312;SDS011;6220;53.580;9.758;2022-09-24T12:02:25;30.60;;;26.60;;
12312;SDS011;6220;53.580;9.758;2022-09-24T12:07:37;28.70;;;25.60;;
12312;SDS011;6220;53.580;9.758;2022-09-24T12:10:21;27.73;;;24.73;;
12312;SDS011;6220;53.580;9.758;2022-09-24T12:12:51;30.13;;;24.83;;
12312;SDS011;6220;53.580;9.758;2022-09-24T12:15:22;27.93;;;24.50;;
12312;SDS011;6220;53.580;9.758;2022-09-24T12:17:56;27.20;;;23.30;;
12312;SDS011;6220;53.580;9.758;2022-09-24T12:20:30;28.60;;;24.77;;
12312;SDS011;6220;53.580;9.758;2022-09-24T12:23:01;30.23;;;24.17;;
12312;SDS011;6220;53.580;9.758;2022-09-24T12:25:33;29.93;;;25.33;;
12312;SDS011;6220;53.580;9.758;2022-09-24T12:28:03;28.60;;;24.37;;
12312;SDS011;6220;53.580;9.758;2022-09-24T12:30:44;29.03;;;24.53;;
12312;SDS011;6220;53.580;9.758;2022-09-24T12:33:34;32.07;;;24.33;;
12312;SDS011;6220;53.580;9.758;2022-09-24T12:39:07;30.20;;;25.47;;
12312;SDS011;6220;53.580;9.758;2022-09-24T12:41:39;29.00;;;25.70;;
12312;SDS011;6220;53.580;9.758;2022-09-24T12:46:49;25.97;;;22.37;;
12312;SDS011;6220;53.580;9.758;2022-09-24T12:49:25;25.83;;;22.93;;
12312;SDS011;6220;53.580;9.758;2022-09-24T12:51:54;27.60;;;24.00;;
12312;SDS011;6220;53.580;9.758;2022-09-24T12:54:22;24.83;;;22.17;;
12312;SDS011;6220;53.580;9.758;2022-09-24T12:57:03;25.87;;;23.07;;
12312;SDS011;6220;53.580;9.758;2022-09-24T12:59:28;26.10;;;23.27;;
12312;SDS011;6220;53.580;9.758;2022-09-24T13:01:54;28.63;;;22.77;;
12312;SDS011;6220;53.580;9.758;2022-09-24T13:04:31;26.33;;;22.60;;
12312;SDS011;6220;53.580;9.758;2022-09-24T13:06:56;27.10;;;21.73;;
12312;SDS011;6220;53.580;9.758;2022-09-24T13:12:05;25.27;;;22.60;;
12312;SDS011;6220;53.580;9.758;2022-09-24T13:17:31;24.93;;;22.33;;
12312;SDS011;6220;53.580;9.758;2022-09-24T13:19:58;26.83;;;21.67;;
12312;SDS011;6220;53.580;9.758;2022-09-24T13:22:29;25.10;;;22.50;;
12312;SDS011;6220;53.580;9.758;2022-09-24T13:27:37;23.10;;;20.67;;
12312;SDS011;6220;53.580;9.758;2022-09-24T13:32:35;25.83;;;21.97;;
12312;SDS011;6220;53.580;9.758;2022-09-24T13:35:04;28.90;;;22.03;;
12312;SDS011;6220;53.580;9.758;2022-09-24T13:37:40;25.33;;;22.47;;
12312;SDS011;6220;53.580;9.758;2022-09-24T13:40:27;25.10;;;20.87;;
12312;SDS011;6220;53.580;9.758;2022-09-24T13:45:29;23.23;;;19.70;;
12312;SDS011;6220;53.580;9.758;2022-09-24T13:48:03;24.57;;;21.30;;
12312;SDS011;6220;53.580;9.758;2022-09-24T13:50:31;24.83;;;21.43;;
12312;SDS011;6220;53.580;9.758;2022-09-24T13:55:33;22.70;;;20.30;;
12312;SDS011;6220;53.580;9.758;2022-09-24T13:58:01;23.73;;;20.50;;
12312;SDS011;6220;53.580;9.758;2022-09-24T14:00:27;21.03;;;18.73;;
12312;SDS011;6220;53.580;9.758;2022-09-24T14:02:58;23.83;;;19.67;;
12312;SDS011;6220;53.580;9.758;2022-09-24T14:05:24;20.90;;;18.57;;
12312;SDS011;6220;53.580;9.758;2022-09-24T14:07:51;22.90;;;19.20;;
12312;SDS011;6220;53.580;9.758;2022-09-24T14:10:38;22.47;;;20.07;;
12312;SDS011;6220;53.580;9.758;2022-09-24T14:15:33;21.33;;;19.07;;
12312;SDS011;6220;53.580;9.758;2022-09-24T14:18:00;22.30;;;19.13;;
12312;SDS011;6220;53.580;9.758;2022-09-24T14:20:26;22.53;;;19.40;;
12312;SDS011;6220;53.580;9.758;2022-09-24T14:22:53;21.27;;;19.03;;
12312;SDS011;6220;53.580;9.758;2022-09-24T14:25:28;22.20;;;19.63;;
12312;SDS011;6220;53.580;9.758;2022-09-24T14:27:54;21.73;;;18.83;;
12312;SDS011;6220;53.580;9.758;2022-09-24T14:30:22;26.77;;;23.20;;
12312;SDS011;6220;53.580;9.758;2022-09-24T14:32:54;24.83;;;21.23;;
12312;SDS011;6220;53.580;9.758;2022-09-24T14:35:25;22.93;;;19.33;;
12312;SDS011;6220;53.580;9.758;2022-09-24T14:37:52;23.67;;;20.17;;
12312;SDS011;6220;53.580;9.758;2022-09-24T14:40:19;19.30;;;17.30;;
12312;SDS011;6220;53.580;9.758;2022-09-24T14:42:53;20.73;;;17.47;;
12312;SDS011;6220;53.580;9.758;2022-09-24T14:45:22;20.47;;;17.67;;
12312;SDS011;6220;53.580;9.758;2022-09-24T14:48:01;21.43;;;18.10;;
12312;SDS011;6220;53.580;9.758;2022-09-24T14:50:36;19.13;;;17.13;;
12312;SDS011;6220;53.580;9.758;2022-09-24T14:55:43;19.87;;;17.20;;
12312;SDS011;6220;53.580;9.758;2022-09-24T15:01:12;18.77;;;16.83;;
12312;SDS011;6220;53.580;9.758;2022-09-24T15:06:27;20.60;;;18.10;;
12312;SDS011;6220;53.580;9.758;2022-09-24T15:09:04;20.90;;;18.80;;
12312;SDS011;6220;53.580;9.758;2022-09-24T15:11:31;19.60;;;17.50;;
12312;SDS011;6220;53.580;9.758;2022-09-24T15:16:33;19.30;;;17.30;;
12312;SDS011;6220;53.580;9.758;2022-09-24T15:21:30;19.43;;;17.53;;
12312;SDS011;6220;53.580;9.758;2022-09-24T15:23:56;18.27;;;16.47;;
12312;SDS011;6220;53.580;9.758;2022-09-24T15:26:22;21.10;;;18.90;;
12312;SDS011;6220;53.580;9.758;2022-09-24T15:28:51;21.30;;;19.10;;
12312;SDS011;6220;53.580;9.758;2022-09-24T15:31:16;25.20;;;20.07;;
12312;SDS011;6220;53.580;9.758;2022-09-24T15:33:41;20.23;;;18.03;;
12312;SDS011;6220;53.580;9.758;2022-09-24T15:36:07;28.00;;;22.90;;
12312;SDS011;6220;53.580;9.758;2022-09-24T15:38:32;28.43;;;24.43;;
12312;SDS011;6220;53.580;9.758;2022-09-24T15:40:58;26.90;;;23.77;;
12312;SDS011;6220;53.580;9.758;2022-09-24T15:43:24;26.67;;;23.83;;
12312;SDS011;6220;53.580;9.758;2022-09-24T15:45:49;25.50;;;22.80;;
12312;SDS011;6220;53.580;9.758;2022-09-24T15:48:15;25.30;;;22.20;;
12312;SDS011;6220;53.580;9.758;2022-09-24T15:50:41;27.10;;;22.33;;
12312;SDS011;6220;53.580;9.758;2022-09-24T15:53:11;27.07;;;23.03;;
12312;SDS011;6220;53.580;9.758;2022-09-24T15:55:43;27.23;;;24.43;;
12312;SDS011;6220;53.580;9.758;2022-09-24T15:58:12;26.90;;;23.90;;
12312;SDS011;6220;53.580;9.758;2022-09-24T16:00:38;25.30;;;22.67;;
12312;SDS011;6220;53.580;9.758;2022-09-24T16:03:03;25.57;;;22.97;;
12312;SDS011;6220;53.580;9.758;2022-09-24T16:05:29;25.27;;;22.67;;
12312;SDS011;6220;53.580;9.758;2022-09-24T16:07:54;26.03;;;23.33;;
12312;SDS011;6220;53.580;9.758;2022-09-24T16:10:20;24.27;;;21.70;;
12312;SDS011;6220;53.580;9.758;2022-09-24T16:12:45;29.77;;;24.80;;
12312;SDS011;6220;53.580;9.758;2022-09-24T16:15:11;30.27;;;25.53;;
12312;SDS011;6220;53.580;9.758;2022-09-24T16:17:38;27.50;;;24.60;;
12312;SDS011;6220;53.580;9.758;2022-09-24T16:20:04;26.90;;;24.00;;
12312;SDS011;6220;53.580;9.758;2022-09-24T16:22:29;27.53;;;24.67;;
12312;SDS011;6220;53.580;9.758;2022-09-24T16:24:55;30.23;;;26.43;;
12312;SDS011;6220;53.580;9.758;2022-09-24T16:27:20;28.70;;;25.27;;
12312;SDS011;6220;53.580;9.758;2022-09-24T16:29:46;28.83;;;24.53;;
12312;SDS011;6220;53.580;9.758;2022-09-24T16:32:11;25.80;;;22.87;;
12312;SDS011;6220;53.580;9.758;2022-09-24T16:34:37;27.03;;;22.87;;
12312;SDS011;6220;53.580;9.758;2022-09-24T16:37:03;24.37;;;21.80;;
12312;SDS011;6220;53.580;9.758;2022-09-24T16:39:29;23.07;;;20.50;;